FLIGHT INFORMATION
United Airlines

UAL6520

At Arrival Gate

CYEG
 KRNO
DATE: 2020-01-09
GATE:  -
GATE DEPARTURE: 20:22
TAKEOFF: 20:36
DATE: 2020-01-09
GATE:  -
LANDING: 22:48
GATE ARRIVAL: 22:54
FLIGHT DATA
Crew: PETE LOCASCIO
Speed: 459 kts Altitude: 36000 ft
Stage Length: 867 nm
Route: 
Block Time: 2.5 Flight Time: 2.2
Fuel Used: 14248 LB
TRACK DATA
50000 FT1000 KTAltitudeSpeed
AIRCRAFT INFORMATION
Aircraft Type: B739ERSSW
Registration: N78448
SELCAL:  MSN/LN: 40003 / 3942
Operator: UNITED AIRLINES
Flights: 10 Block Time: 24 Flight Time: 20.6
Fuel Used: 135969 LB
  • DEPARTURE INFORMATION
    Date: 2020-01-09
    Airport: CYEG
    Gate:  -
    Gate Departure: 20:22
    Takeoff: 20:36
    ARRIVAL INFORMATION
    Date: 2020-01-09
    Airport: KRNO
    Gate:  -
    Landing: 22:48
    Gate Arrival: 22:54
  • FLIGHT DATA
    Crew: PETE LOCASCIO
    Speed: 459 kts Altitude: 36000 ft
    Stage Length: 468 nm
    Route: 
    Block Time: 2.5 Flight Time: 2.2
    Fuel Used: 14248 LB
  • AIRCRAFT INFORMATION
    Aircraft Type: B739ERSSW
    Registration: N78448
    SELCAL:  MSN/LN: 40003 / 3942
    Operator: United Airlines
    Flights: 10 Block Time: 24 Flight Time: 20.6
    Fuel Used: 135969 LB

DATALINK LOG | Newest first | Current as of: 2020-06-02 04:13:21
LABEL ID SEQUENCE CONTENT Dn/Up
QD554322:54 5.7▼ Dn
QC494222:48▼ Dn
2U0559KRNO 092055Z 33014KT 10SM FEW015 BKN038 BKN070 03/M01 A3000 RMK AO2 PK WND 35027/2003 RAE1958SNE33 SLP159 P0000 60000 T00331011▲ Up
2S0559KRNO▼ Dn
QB374720:36▼ Dn
QA233420:22 20▼ Dn
2U1653CYEG 092000Z 34008KT 20SM FEW080 BKN120 M20/M25 A3005 RMK AC2AS4 SLP247▲ Up
2S1653CYEG▼ Dn
Q01524[LINK ACK]▲ Up
Q01637[LINK TEST]▼ Dn
A30211CLEARED TO KRNO VIA YEG YXC J517 GEG J3 LKV J5 HARTT EELZA2. SQUAWK 2237.▲ Up
A30119CLEARED TO KRNO VIA YEG YXC J517 GEG J3 LKV J5 HARTT EELZA2. SQUAWK 5527.▲ Up
Q00009[LINK ACK]▲ Up
Q00058[LINK TEST]▼ Dn


AIRCRAFT HISTORY
FLIGHT DATE FLIGHT NUMBER ORIGIN DESTINATION ROUTE BLOCK TIME FLIGHT TIME FUEL USED (LB) PILOT
2020-02-17UAL519KPHX KLAX 1.20.97054Steven Perry
2020-01-23UAL5816CYYC KPHX 2.72.515272Pete Locascio
2020-01-19UAL6126KRNO CYYC 2.4213185Pete Locascio
2020-01-09UAL6520CYEG KRNO 2.52.214248Pete Locascio
2020-01-07UAL5829KIDA CYEG 2.21.711129Pete Locascio
2020-01-04UAL6123KIAH KIDA 3.5320126Pete Locascio
2020-01-02UAL1128KORD KIAH 32.616808Pete Locascio
2020-01-01UAL228KIAH KORD 2.41.912961Michael Roth
2019-12-14UAL519KDEN KIAH 1.91.712035Steven Perry
2019-12-11UAL1629KSFO KDEN 2.3213151Pete Locascio